sensor_id;sensor_type;location;lat;lon;timestamp;P1;durP1;ratioP1;P2;durP2;ratioP2
21860;SDS011;11095;48.066;8.540;2023-07-29T00:01:11;4.10;;;3.28;;
21860;SDS011;11095;48.066;8.540;2023-07-29T00:03:37;3.78;;;3.03;;
21860;SDS011;11095;48.066;8.540;2023-07-29T00:06:02;3.60;;;3.30;;
21860;SDS011;11095;48.066;8.540;2023-07-29T00:08:28;4.15;;;3.30;;
21860;SDS011;11095;48.066;8.540;2023-07-29T00:10:54;3.45;;;2.75;;
21860;SDS011;11095;48.066;8.540;2023-07-29T00:13:19;3.92;;;3.10;;
21860;SDS011;11095;48.066;8.540;2023-07-29T00:15:45;3.42;;;3.10;;
21860;SDS011;11095;48.066;8.540;2023-07-29T00:18:10;3.58;;;3.10;;
21860;SDS011;11095;48.066;8.540;2023-07-29T00:20:36;5.15;;;3.50;;
21860;SDS011;11095;48.066;8.540;2023-07-29T00:23:01;4.97;;;3.53;;
21860;SDS011;11095;48.066;8.540;2023-07-29T00:25:27;3.55;;;3.25;;
21860;SDS011;11095;48.066;8.540;2023-07-29T00:27:55;4.05;;;3.25;;
21860;SDS011;11095;48.066;8.540;2023-07-29T00:30:21;5.18;;;3.58;;
21860;SDS011;11095;48.066;8.540;2023-07-29T00:32:46;3.95;;;3.20;;
21860;SDS011;11095;48.066;8.540;2023-07-29T00:35:12;4.28;;;3.33;;
21860;SDS011;11095;48.066;8.540;2023-07-29T00:37:38;4.13;;;3.08;;
21860;SDS011;11095;48.066;8.540;2023-07-29T00:40:06;5.25;;;3.83;;
21860;SDS011;11095;48.066;8.540;2023-07-29T00:42:39;5.63;;;4.20;;
21860;SDS011;11095;48.066;8.540;2023-07-29T00:45:07;5.43;;;3.40;;
21860;SDS011;11095;48.066;8.540;2023-07-29T00:47:33;5.57;;;3.53;;
21860;SDS011;11095;48.066;8.540;2023-07-29T00:49:59;6.63;;;4.20;;
21860;SDS011;11095;48.066;8.540;2023-07-29T00:52:25;3.67;;;3.30;;
21860;SDS011;11095;48.066;8.540;2023-07-29T00:54:50;5.10;;;4.07;;
21860;SDS011;11095;48.066;8.540;2023-07-29T00:57:16;3.70;;;3.20;;
21860;SDS011;11095;48.066;8.540;2023-07-29T00:59:42;5.82;;;4.28;;
21860;SDS011;11095;48.066;8.540;2023-07-29T01:02:08;5.18;;;3.70;;
21860;SDS011;11095;48.066;8.540;2023-07-29T01:04:34;5.20;;;3.95;;
21860;SDS011;11095;48.066;8.540;2023-07-29T01:17:55;6.05;;;3.83;;
21860;SDS011;11095;48.066;8.540;2023-07-29T01:20:29;4.75;;;3.72;;
21860;SDS011;11095;48.066;8.540;2023-07-29T01:22:58;4.80;;;3.92;;
21860;SDS011;11095;48.066;8.540;2023-07-29T01:25:24;4.53;;;3.90;;
21860;SDS011;11095;48.066;8.540;2023-07-29T01:27:49;7.03;;;3.85;;
21860;SDS011;11095;48.066;8.540;2023-07-29T01:30:16;4.55;;;3.80;;
21860;SDS011;11095;48.066;8.540;2023-07-29T01:32:47;4.05;;;3.50;;
21860;SDS011;11095;48.066;8.540;2023-07-29T01:38:41;4.57;;;3.83;;
21860;SDS011;11095;48.066;8.540;2023-07-29T01:41:01;4.55;;;3.83;;
21860;SDS011;11095;48.066;8.540;2023-07-29T01:43:28;5.10;;;4.18;;
21860;SDS011;11095;48.066;8.540;2023-07-29T01:45:54;4.32;;;3.58;;
21860;SDS011;11095;48.066;8.540;2023-07-29T01:48:20;5.03;;;3.92;;
21860;SDS011;11095;48.066;8.540;2023-07-29T01:50:45;5.10;;;4.13;;
21860;SDS011;11095;48.066;8.540;2023-07-29T01:53:11;5.40;;;4.22;;
21860;SDS011;11095;48.066;8.540;2023-07-29T01:55:36;4.95;;;4.00;;
21860;SDS011;11095;48.066;8.540;2023-07-29T01:58:03;6.32;;;4.55;;
21860;SDS011;11095;48.066;8.540;2023-07-29T02:00:29;5.10;;;3.88;;
21860;SDS011;11095;48.066;8.540;2023-07-29T02:02:54;5.60;;;4.70;;
21860;SDS011;11095;48.066;8.540;2023-07-29T02:05:20;4.47;;;3.83;;
21860;SDS011;11095;48.066;8.540;2023-07-29T02:07:45;5.55;;;3.88;;
21860;SDS011;11095;48.066;8.540;2023-07-29T02:10:11;5.30;;;4.43;;
21860;SDS011;11095;48.066;8.540;2023-07-29T02:12:37;4.85;;;4.35;;
21860;SDS011;11095;48.066;8.540;2023-07-29T02:15:03;4.93;;;4.43;;
21860;SDS011;11095;48.066;8.540;2023-07-29T02:17:29;8.70;;;5.50;;
21860;SDS011;11095;48.066;8.540;2023-07-29T02:19:55;5.30;;;4.50;;
21860;SDS011;11095;48.066;8.540;2023-07-29T02:22:20;6.57;;;5.30;;
21860;SDS011;11095;48.066;8.540;2023-07-29T02:24:46;6.68;;;4.90;;
21860;SDS011;11095;48.066;8.540;2023-07-29T02:27:11;6.40;;;4.97;;
21860;SDS011;11095;48.066;8.540;2023-07-29T02:29:37;5.28;;;4.65;;
21860;SDS011;11095;48.066;8.540;2023-07-29T02:32:03;6.43;;;5.20;;
21860;SDS011;11095;48.066;8.540;2023-07-29T02:34:29;6.32;;;5.28;;
21860;SDS011;11095;48.066;8.540;2023-07-29T02:36:54;7.47;;;5.40;;
21860;SDS011;11095;48.066;8.540;2023-07-29T02:39:20;6.15;;;4.95;;
21860;SDS011;11095;48.066;8.540;2023-07-29T02:41:46;5.70;;;4.50;;
21860;SDS011;11095;48.066;8.540;2023-07-29T02:44:12;6.22;;;4.97;;
21860;SDS011;11095;48.066;8.540;2023-07-29T02:46:37;6.10;;;5.40;;
21860;SDS011;11095;48.066;8.540;2023-07-29T02:49:03;7.28;;;5.47;;
21860;SDS011;11095;48.066;8.540;2023-07-29T02:51:29;8.57;;;5.63;;
21860;SDS011;11095;48.066;8.540;2023-07-29T02:53:55;5.75;;;5.13;;
21860;SDS011;11095;48.066;8.540;2023-07-29T02:56:21;6.20;;;5.60;;
21860;SDS011;11095;48.066;8.540;2023-07-29T02:58:46;9.30;;;6.28;;
21860;SDS011;11095;48.066;8.540;2023-07-29T03:01:12;10.10;;;5.50;;
21860;SDS011;11095;48.066;8.540;2023-07-29T03:03:38;6.47;;;5.43;;
21860;SDS011;11095;48.066;8.540;2023-07-29T03:06:06;6.20;;;5.38;;
21860;SDS011;11095;48.066;8.540;2023-07-29T03:08:32;7.22;;;5.57;;
21860;SDS011;11095;48.066;8.540;2023-07-29T03:10:58;6.25;;;5.30;;
21860;SDS011;11095;48.066;8.540;2023-07-29T03:13:29;7.30;;;5.75;;
21860;SDS011;11095;48.066;8.540;2023-07-29T03:15:55;7.90;;;5.70;;
21860;SDS011;11095;48.066;8.540;2023-07-29T03:18:30;8.40;;;6.05;;
21860;SDS011;11095;48.066;8.540;2023-07-29T03:20:55;7.80;;;5.72;;
21860;SDS011;11095;48.066;8.540;2023-07-29T03:23:21;7.65;;;6.60;;
21860;SDS011;11095;48.066;8.540;2023-07-29T03:25:50;7.65;;;6.32;;
21860;SDS011;11095;48.066;8.540;2023-07-29T03:28:21;7.07;;;5.70;;
21860;SDS011;11095;48.066;8.540;2023-07-29T03:30:48;9.48;;;6.25;;
21860;SDS011;11095;48.066;8.540;2023-07-29T03:33:14;7.38;;;5.78;;
21860;SDS011;11095;48.066;8.540;2023-07-29T03:35:39;6.20;;;4.97;;
21860;SDS011;11095;48.066;8.540;2023-07-29T03:38:05;8.85;;;5.45;;
21860;SDS011;11095;48.066;8.540;2023-07-29T03:40:30;5.45;;;4.88;;
21860;SDS011;11095;48.066;8.540;2023-07-29T03:42:56;5.28;;;4.78;;
21860;SDS011;11095;48.066;8.540;2023-07-29T03:45:21;7.30;;;5.45;;
21860;SDS011;11095;48.066;8.540;2023-07-29T03:47:47;6.45;;;5.05;;
21860;SDS011;11095;48.066;8.540;2023-07-29T03:50:12;5.97;;;4.47;;
21860;SDS011;11095;48.066;8.540;2023-07-29T03:52:38;5.82;;;4.72;;
21860;SDS011;11095;48.066;8.540;2023-07-29T03:55:04;5.55;;;4.97;;
21860;SDS011;11095;48.066;8.540;2023-07-29T03:57:30;6.18;;;4.75;;
21860;SDS011;11095;48.066;8.540;2023-07-29T03:59:55;8.15;;;4.70;;
21860;SDS011;11095;48.066;8.540;2023-07-29T04:02:21;8.73;;;5.22;;
21860;SDS011;11095;48.066;8.540;2023-07-29T04:04:46;7.72;;;4.72;;
21860;SDS011;11095;48.066;8.540;2023-07-29T04:07:13;5.57;;;4.80;;
21860;SDS011;11095;48.066;8.540;2023-07-29T04:09:39;5.50;;;4.53;;
21860;SDS011;11095;48.066;8.540;2023-07-29T04:12:04;5.32;;;4.63;;
21860;SDS011;11095;48.066;8.540;2023-07-29T04:14:30;6.25;;;4.63;;
21860;SDS011;11095;48.066;8.540;2023-07-29T04:16:56;4.85;;;4.10;;
21860;SDS011;11095;48.066;8.540;2023-07-29T04:19:21;7.22;;;4.30;;
21860;SDS011;11095;48.066;8.540;2023-07-29T04:21:47;5.20;;;4.03;;
21860;SDS011;11095;48.066;8.540;2023-07-29T04:24:12;4.10;;;3.70;;
21860;SDS011;11095;48.066;8.540;2023-07-29T04:26:38;5.68;;;4.22;;
21860;SDS011;11095;48.066;8.540;2023-07-29T04:29:04;5.22;;;3.90;;
21860;SDS011;11095;48.066;8.540;2023-07-29T04:31:30;4.28;;;3.60;;
21860;SDS011;11095;48.066;8.540;2023-07-29T04:33:55;5.07;;;3.65;;
21860;SDS011;11095;48.066;8.540;2023-07-29T04:36:21;4.40;;;3.42;;
21860;SDS011;11095;48.066;8.540;2023-07-29T04:38:46;4.63;;;3.50;;
21860;SDS011;11095;48.066;8.540;2023-07-29T04:41:12;4.57;;;3.10;;
21860;SDS011;11095;48.066;8.540;2023-07-29T04:43:37;5.57;;;3.50;;
21860;SDS011;11095;48.066;8.540;2023-07-29T04:46:06;3.42;;;3.05;;
21860;SDS011;11095;48.066;8.540;2023-07-29T04:48:32;3.75;;;2.80;;
21860;SDS011;11095;48.066;8.540;2023-07-29T04:50:58;3.13;;;2.80;;
21860;SDS011;11095;48.066;8.540;2023-07-29T04:53:23;3.05;;;2.80;;
21860;SDS011;11095;48.066;8.540;2023-07-29T04:55:49;4.28;;;2.97;;
21860;SDS011;11095;48.066;8.540;2023-07-29T04:58:15;3.63;;;3.05;;
21860;SDS011;11095;48.066;8.540;2023-07-29T05:00:40;4.32;;;2.80;;
21860;SDS011;11095;48.066;8.540;2023-07-29T05:03:06;2.90;;;2.60;;
21860;SDS011;11095;48.066;8.540;2023-07-29T05:05:31;2.70;;;2.50;;
21860;SDS011;11095;48.066;8.540;2023-07-29T05:07:57;2.83;;;2.28;;
21860;SDS011;11095;48.066;8.540;2023-07-29T05:10:23;2.83;;;2.40;;
21860;SDS011;11095;48.066;8.540;2023-07-29T05:12:48;3.05;;;2.20;;
21860;SDS011;11095;48.066;8.540;2023-07-29T05:15:14;2.78;;;2.22;;
21860;SDS011;11095;48.066;8.540;2023-07-29T05:17:40;3.80;;;2.60;;
21860;SDS011;11095;48.066;8.540;2023-07-29T05:20:06;2.20;;;2.00;;
21860;SDS011;11095;48.066;8.540;2023-07-29T05:22:32;2.20;;;2.00;;
21860;SDS011;11095;48.066;8.540;2023-07-29T05:24:57;3.15;;;2.60;;
21860;SDS011;11095;48.066;8.540;2023-07-29T05:27:23;3.92;;;2.50;;
21860;SDS011;11095;48.066;8.540;2023-07-29T05:29:48;2.35;;;2.13;;
21860;SDS011;11095;48.066;8.540;2023-07-29T05:32:14;3.05;;;2.40;;
21860;SDS011;11095;48.066;8.540;2023-07-29T05:34:39;3.40;;;2.50;;
21860;SDS011;11095;48.066;8.540;2023-07-29T05:37:05;3.25;;;2.30;;
21860;SDS011;11095;48.066;8.540;2023-07-29T05:39:31;2.50;;;2.30;;
21860;SDS011;11095;48.066;8.540;2023-07-29T05:41:57;2.88;;;2.58;;
21860;SDS011;11095;48.066;8.540;2023-07-29T05:44:23;3.22;;;2.47;;
21860;SDS011;11095;48.066;8.540;2023-07-29T05:46:48;4.00;;;2.55;;
21860;SDS011;11095;48.066;8.540;2023-07-29T05:49:14;3.35;;;2.88;;
21860;SDS011;11095;48.066;8.540;2023-07-29T05:51:39;2.97;;;2.47;;
21860;SDS011;11095;48.066;8.540;2023-07-29T05:54:05;2.58;;;2.38;;
21860;SDS011;11095;48.066;8.540;2023-07-29T05:56:30;2.50;;;2.30;;
21860;SDS011;11095;48.066;8.540;2023-07-29T05:58:56;6.22;;;3.00;;
21860;SDS011;11095;48.066;8.540;2023-07-29T06:01:22;3.03;;;2.25;;
21860;SDS011;11095;48.066;8.540;2023-07-29T06:03:48;3.25;;;2.47;;
21860;SDS011;11095;48.066;8.540;2023-07-29T06:06:13;3.40;;;2.60;;
21860;SDS011;11095;48.066;8.540;2023-07-29T06:08:39;2.15;;;1.95;;
21860;SDS011;11095;48.066;8.540;2023-07-29T06:11:05;2.55;;;2.33;;
21860;SDS011;11095;48.066;8.540;2023-07-29T06:13:31;3.28;;;2.40;;
21860;SDS011;11095;48.066;8.540;2023-07-29T06:15:57;3.88;;;2.42;;
21860;SDS011;11095;48.066;8.540;2023-07-29T06:18:23;3.67;;;2.70;;
21860;SDS011;11095;48.066;8.540;2023-07-29T06:20:49;2.58;;;2.38;;
21860;SDS011;11095;48.066;8.540;2023-07-29T06:23:14;2.85;;;2.55;;
21860;SDS011;11095;48.066;8.540;2023-07-29T06:25:40;4.55;;;2.72;;
21860;SDS011;11095;48.066;8.540;2023-07-29T06:28:05;3.38;;;2.70;;
21860;SDS011;11095;48.066;8.540;2023-07-29T06:30:31;3.78;;;2.60;;
21860;SDS011;11095;48.066;8.540;2023-07-29T06:32:56;2.90;;;2.60;;
21860;SDS011;11095;48.066;8.540;2023-07-29T06:35:22;2.83;;;2.30;;
21860;SDS011;11095;48.066;8.540;2023-07-29T06:37:48;4.15;;;2.55;;
21860;SDS011;11095;48.066;8.540;2023-07-29T06:40:14;4.05;;;2.45;;
21860;SDS011;11095;48.066;8.540;2023-07-29T06:42:40;3.35;;;2.80;;
21860;SDS011;11095;48.066;8.540;2023-07-29T06:45:06;3.45;;;2.60;;
21860;SDS011;11095;48.066;8.540;2023-07-29T06:47:32;4.38;;;2.53;;
21860;SDS011;11095;48.066;8.540;2023-07-29T06:49:57;2.92;;;2.30;;
21860;SDS011;11095;48.066;8.540;2023-07-29T06:52:23;3.13;;;2.60;;
21860;SDS011;11095;48.066;8.540;2023-07-29T06:54:48;2.60;;;2.40;;
21860;SDS011;11095;48.066;8.540;2023-07-29T06:57:14;2.60;;;2.40;;
21860;SDS011;11095;48.066;8.540;2023-07-29T06:59:39;2.92;;;2.40;;
21860;SDS011;11095;48.066;8.540;2023-07-29T07:02:06;2.60;;;2.40;;
21860;SDS011;11095;48.066;8.540;2023-07-29T07:04:32;3.00;;;2.00;;
21860;SDS011;11095;48.066;8.540;2023-07-29T07:06:57;2.75;;;2.30;;
21860;SDS011;11095;48.066;8.540;2023-07-29T07:09:23;2.22;;;1.95;;
21860;SDS011;11095;48.066;8.540;2023-07-29T07:11:48;2.53;;;2.33;;
21860;SDS011;11095;48.066;8.540;2023-07-29T07:14:14;4.20;;;2.45;;
21860;SDS011;11095;48.066;8.540;2023-07-29T07:16:40;2.67;;;2.00;;
21860;SDS011;11095;48.066;8.540;2023-07-29T07:19:05;2.92;;;1.88;;
21860;SDS011;11095;48.066;8.540;2023-07-29T07:21:31;3.17;;;2.22;;
21860;SDS011;11095;48.066;8.540;2023-07-29T07:23:57;2.53;;;2.08;;
21860;SDS011;11095;48.066;8.540;2023-07-29T07:26:23;2.47;;;1.88;;
21860;SDS011;11095;48.066;8.540;2023-07-29T07:28:49;3.17;;;2.28;;
21860;SDS011;11095;48.066;8.540;2023-07-29T07:31:14;2.50;;;2.20;;
21860;SDS011;11095;48.066;8.540;2023-07-29T07:33:41;2.58;;;2.35;;
21860;SDS011;11095;48.066;8.540;2023-07-29T07:36:06;2.30;;;2.10;;
21860;SDS011;11095;48.066;8.540;2023-07-29T07:38:32;2.47;;;2.28;;
21860;SDS011;11095;48.066;8.540;2023-07-29T07:40:58;3.28;;;2.85;;
21860;SDS011;11095;48.066;8.540;2023-07-29T07:43:23;3.42;;;2.42;;
21860;SDS011;11095;48.066;8.540;2023-07-29T07:45:49;3.03;;;2.75;;
21860;SDS011;11095;48.066;8.540;2023-07-29T07:48:16;2.63;;;2.20;;
21860;SDS011;11095;48.066;8.540;2023-07-29T07:50:42;3.72;;;1.90;;
21860;SDS011;11095;48.066;8.540;2023-07-29T07:53:08;2.22;;;1.95;;
21860;SDS011;11095;48.066;8.540;2023-07-29T07:55:34;4.50;;;1.70;;
21860;SDS011;11095;48.066;8.540;2023-07-29T07:57:59;2.83;;;1.65;;
21860;SDS011;11095;48.066;8.540;2023-07-29T08:00:25;2.53;;;1.45;;
21860;SDS011;11095;48.066;8.540;2023-07-29T08:02:50;1.55;;;1.40;;
21860;SDS011;11095;48.066;8.540;2023-07-29T08:05:16;2.03;;;1.67;;
21860;SDS011;11095;48.066;8.540;2023-07-29T08:07:41;2.33;;;1.40;;
21860;SDS011;11095;48.066;8.540;2023-07-29T08:10:07;2.88;;;1.50;;
21860;SDS011;11095;48.066;8.540;2023-07-29T08:12:33;2.70;;;1.60;;
21860;SDS011;11095;48.066;8.540;2023-07-29T08:14:58;1.88;;;1.70;;
21860;SDS011;11095;48.066;8.540;2023-07-29T08:17:24;1.60;;;1.50;;
21860;SDS011;11095;48.066;8.540;2023-07-29T08:19:49;2.25;;;1.52;;
21860;SDS011;11095;48.066;8.540;2023-07-29T08:22:15;1.40;;;1.30;;
21860;SDS011;11095;48.066;8.540;2023-07-29T08:24:42;1.58;;;1.30;;
21860;SDS011;11095;48.066;8.540;2023-07-29T08:27:08;1.90;;;1.50;;
21860;SDS011;11095;48.066;8.540;2023-07-29T08:29:33;3.15;;;1.63;;
21860;SDS011;11095;48.066;8.540;2023-07-29T08:31:59;2.75;;;1.60;;
21860;SDS011;11095;48.066;8.540;2023-07-29T08:34:24;3.70;;;1.50;;
21860;SDS011;11095;48.066;8.540;2023-07-29T08:36:50;1.73;;;1.40;;
21860;SDS011;11095;48.066;8.540;2023-07-29T08:39:15;1.83;;;1.42;;
21860;SDS011;11095;48.066;8.540;2023-07-29T08:41:45;2.50;;;1.52;;
21860;SDS011;11095;48.066;8.540;2023-07-29T08:44:20;1.60;;;1.50;;
21860;SDS011;11095;48.066;8.540;2023-07-29T08:46:48;1.73;;;1.63;;
21860;SDS011;11095;48.066;8.540;2023-07-29T08:49:15;1.63;;;1.52;;
21860;SDS011;11095;48.066;8.540;2023-07-29T08:51:43;1.50;;;1.40;;
21860;SDS011;11095;48.066;8.540;2023-07-29T08:54:10;2.40;;;1.60;;
21860;SDS011;11095;48.066;8.540;2023-07-29T08:56:36;2.08;;;1.60;;
21860;SDS011;11095;48.066;8.540;2023-07-29T08:59:02;2.05;;;1.60;;
21860;SDS011;11095;48.066;8.540;2023-07-29T09:01:29;1.90;;;1.60;;
21860;SDS011;11095;48.066;8.540;2023-07-29T09:03:55;1.77;;;1.60;;
21860;SDS011;11095;48.066;8.540;2023-07-29T09:06:21;1.88;;;1.70;;
21860;SDS011;11095;48.066;8.540;2023-07-29T09:08:49;2.05;;;1.52;;
21860;SDS011;11095;48.066;8.540;2023-07-29T09:11:16;3.17;;;1.70;;
21860;SDS011;11095;48.066;8.540;2023-07-29T09:13:42;2.03;;;1.80;;
21860;SDS011;11095;48.066;8.540;2023-07-29T09:16:08;1.83;;;1.50;;
21860;SDS011;11095;48.066;8.540;2023-07-29T09:18:34;2.35;;;1.65;;
21860;SDS011;11095;48.066;8.540;2023-07-29T09:21:00;1.90;;;1.70;;
21860;SDS011;11095;48.066;8.540;2023-07-29T09:23:26;2.35;;;1.48;;
21860;SDS011;11095;48.066;8.540;2023-07-29T09:26:00;1.83;;;1.55;;
21860;SDS011;11095;48.066;8.540;2023-07-29T09:28:27;2.58;;;1.98;;
21860;SDS011;11095;48.066;8.540;2023-07-29T09:31:01;1.88;;;1.55;;
21860;SDS011;11095;48.066;8.540;2023-07-29T09:33:27;1.77;;;1.48;;
21860;SDS011;11095;48.066;8.540;2023-07-29T09:35:53;2.10;;;1.73;;
21860;SDS011;11095;48.066;8.540;2023-07-29T09:38:25;2.50;;;1.95;;
21860;SDS011;11095;48.066;8.540;2023-07-29T09:40:55;2.08;;;1.80;;
21860;SDS011;11095;48.066;8.540;2023-07-29T09:43:25;1.85;;;1.70;;
21860;SDS011;11095;48.066;8.540;2023-07-29T09:45:53;1.92;;;1.70;;
21860;SDS011;11095;48.066;8.540;2023-07-29T09:48:19;1.50;;;1.40;;
21860;SDS011;11095;48.066;8.540;2023-07-29T09:50:47;1.90;;;1.70;;
21860;SDS011;11095;48.066;8.540;2023-07-29T09:53:13;2.10;;;1.70;;
21860;SDS011;11095;48.066;8.540;2023-07-29T09:55:39;2.30;;;2.10;;
21860;SDS011;11095;48.066;8.540;2023-07-29T09:58:10;1.90;;;1.80;;
21860;SDS011;11095;48.066;8.540;2023-07-29T10:00:36;2.00;;;1.80;;
21860;SDS011;11095;48.066;8.540;2023-07-29T10:03:04;1.50;;;1.40;;
21860;SDS011;11095;48.066;8.540;2023-07-29T10:05:29;2.88;;;1.70;;
21860;SDS011;11095;48.066;8.540;2023-07-29T10:07:55;1.88;;;1.70;;
21860;SDS011;11095;48.066;8.540;2023-07-29T10:10:21;2.97;;;1.70;;
21860;SDS011;11095;48.066;8.540;2023-07-29T10:12:47;1.85;;;1.70;;
21860;SDS011;11095;48.066;8.540;2023-07-29T10:15:13;1.85;;;1.75;;
21860;SDS011;11095;48.066;8.540;2023-07-29T10:17:39;2.70;;;1.85;;
21860;SDS011;11095;48.066;8.540;2023-07-29T10:20:06;2.30;;;2.00;;
21860;SDS011;11095;48.066;8.540;2023-07-29T10:22:43;2.17;;;1.70;;
21860;SDS011;11095;48.066;8.540;2023-07-29T10:25:18;1.65;;;1.52;;
21860;SDS011;11095;48.066;8.540;2023-07-29T10:27:49;1.95;;;1.67;;
21860;SDS011;11095;48.066;8.540;2023-07-29T10:30:18;1.70;;;1.60;;
21860;SDS011;11095;48.066;8.540;2023-07-29T10:32:44;1.90;;;1.70;;
21860;SDS011;11095;48.066;8.540;2023-07-29T10:35:11;2.90;;;1.77;;
21860;SDS011;11095;48.066;8.540;2023-07-29T10:37:38;1.70;;;1.60;;
21860;SDS011;11095;48.066;8.540;2023-07-29T10:40:08;2.00;;;1.70;;
21860;SDS011;11095;48.066;8.540;2023-07-29T10:42:38;2.13;;;1.50;;
21860;SDS011;11095;48.066;8.540;2023-07-29T10:45:36;3.03;;;1.83;;
21860;SDS011;11095;48.066;8.540;2023-07-29T10:48:13;2.00;;;1.80;;
21860;SDS011;11095;48.066;8.540;2023-07-29T10:53:52;1.90;;;1.55;;
21860;SDS011;11095;48.066;8.540;2023-07-29T10:56:32;2.20;;;1.60;;
21860;SDS011;11095;48.066;8.540;2023-07-29T11:01:37;1.70;;;1.40;;
21860;SDS011;11095;48.066;8.540;2023-07-29T11:17:34;1.80;;;1.60;;
21860;SDS011;11095;48.066;8.540;2023-07-29T11:20:00;1.50;;;1.40;;
21860;SDS011;11095;48.066;8.540;2023-07-29T11:22:28;2.90;;;1.67;;
21860;SDS011;11095;48.066;8.540;2023-07-29T11:24:54;1.60;;;1.50;;
21860;SDS011;11095;48.066;8.540;2023-07-29T11:27:19;2.13;;;1.40;;
21860;SDS011;11095;48.066;8.540;2023-07-29T11:29:46;1.48;;;1.38;;
21860;SDS011;11095;48.066;8.540;2023-07-29T11:32:11;2.28;;;1.50;;
21860;SDS011;11095;48.066;8.540;2023-07-29T11:34:37;1.40;;;1.30;;
21860;SDS011;11095;48.066;8.540;2023-07-29T11:37:05;1.60;;;1.33;;
21860;SDS011;11095;48.066;8.540;2023-07-29T11:39:31;1.77;;;1.50;;
21860;SDS011;11095;48.066;8.540;2023-07-29T11:41:57;1.80;;;1.50;;
21860;SDS011;11095;48.066;8.540;2023-07-29T11:44:23;1.50;;;1.40;;
21860;SDS011;11095;48.066;8.540;2023-07-29T11:46:50;2.28;;;1.42;;
21860;SDS011;11095;48.066;8.540;2023-07-29T11:49:15;1.85;;;1.40;;
21860;SDS011;11095;48.066;8.540;2023-07-29T11:51:41;1.70;;;1.60;;
21860;SDS011;11095;48.066;8.540;2023-07-29T11:54:08;1.50;;;1.40;;
21860;SDS011;11095;48.066;8.540;2023-07-29T11:56:33;1.75;;;1.60;;
21860;SDS011;11095;48.066;8.540;2023-07-29T11:59:00;1.83;;;1.33;;
21860;SDS011;11095;48.066;8.540;2023-07-29T12:01:27;1.85;;;1.75;;
21860;SDS011;11095;48.066;8.540;2023-07-29T12:03:53;2.08;;;1.50;;
21860;SDS011;11095;48.066;8.540;2023-07-29T12:06:22;1.60;;;1.50;;
21860;SDS011;11095;48.066;8.540;2023-07-29T12:08:49;1.58;;;1.48;;
21860;SDS011;11095;48.066;8.540;2023-07-29T12:11:16;2.05;;;1.70;;
21860;SDS011;11095;48.066;8.540;2023-07-29T12:13:42;1.70;;;1.60;;
21860;SDS011;11095;48.066;8.540;2023-07-29T12:16:08;1.85;;;1.70;;
21860;SDS011;11095;48.066;8.540;2023-07-29T12:18:34;1.60;;;1.40;;
21860;SDS011;11095;48.066;8.540;2023-07-29T12:21:01;1.60;;;1.50;;
21860;SDS011;11095;48.066;8.540;2023-07-29T12:23:27;1.60;;;1.40;;
21860;SDS011;11095;48.066;8.540;2023-07-29T12:25:57;3.22;;;1.60;;
21860;SDS011;11095;48.066;8.540;2023-07-29T12:28:24;2.25;;;1.90;;
21860;SDS011;11095;48.066;8.540;2023-07-29T12:30:53;2.45;;;1.48;;
21860;SDS011;11095;48.066;8.540;2023-07-29T12:35:58;1.60;;;1.50;;
21860;SDS011;11095;48.066;8.540;2023-07-29T12:38:27;2.83;;;1.60;;
21860;SDS011;11095;48.066;8.540;2023-07-29T12:40:54;1.60;;;1.50;;
21860;SDS011;11095;48.066;8.540;2023-07-29T12:43:20;1.42;;;1.33;;
21860;SDS011;11095;48.066;8.540;2023-07-29T12:45:46;1.60;;;1.50;;
21860;SDS011;11095;48.066;8.540;2023-07-29T12:48:14;1.70;;;1.60;;
21860;SDS011;11095;48.066;8.540;2023-07-29T12:50:40;1.60;;;1.50;;
21860;SDS011;11095;48.066;8.540;2023-07-29T12:53:06;1.80;;;1.60;;
21860;SDS011;11095;48.066;8.540;2023-07-29T12:55:33;1.70;;;1.60;;
21860;SDS011;11095;48.066;8.540;2023-07-29T12:57:59;1.60;;;1.50;;
21860;SDS011;11095;48.066;8.540;2023-07-29T13:00:25;2.15;;;1.80;;
21860;SDS011;11095;48.066;8.540;2023-07-29T13:02:51;1.63;;;1.52;;
21860;SDS011;11095;48.066;8.540;2023-07-29T13:05:17;1.73;;;1.63;;
21860;SDS011;11095;48.066;8.540;2023-07-29T13:07:42;2.30;;;1.52;;
21860;SDS011;11095;48.066;8.540;2023-07-29T13:10:11;2.03;;;1.60;;
21860;SDS011;11095;48.066;8.540;2023-07-29T13:15:04;1.52;;;1.42;;
21860;SDS011;11095;48.066;8.540;2023-07-29T13:17:30;1.63;;;1.52;;
21860;SDS011;11095;48.066;8.540;2023-07-29T13:19:55;2.03;;;1.83;;
21860;SDS011;11095;48.066;8.540;2023-07-29T13:22:21;1.70;;;1.60;;
21860;SDS011;11095;48.066;8.540;2023-07-29T13:24:46;2.08;;;1.88;;
21860;SDS011;11095;48.066;8.540;2023-07-29T13:27:12;1.60;;;1.50;;
21860;SDS011;11095;48.066;8.540;2023-07-29T13:29:38;1.98;;;1.77;;
21860;SDS011;11095;48.066;8.540;2023-07-29T13:32:05;2.42;;;1.98;;
21860;SDS011;11095;48.066;8.540;2023-07-29T13:34:31;2.38;;;1.83;;
21860;SDS011;11095;48.066;8.540;2023-07-29T13:36:56;2.35;;;1.67;;
21860;SDS011;11095;48.066;8.540;2023-07-29T13:39:22;1.77;;;1.67;;
21860;SDS011;11095;48.066;8.540;2023-07-29T13:41:47;1.95;;;1.70;;
21860;SDS011;11095;48.066;8.540;2023-07-29T13:44:13;1.98;;;1.70;;
21860;SDS011;11095;48.066;8.540;2023-07-29T13:46:38;2.88;;;1.70;;
21860;SDS011;11095;48.066;8.540;2023-07-29T13:49:04;2.47;;;1.48;;
21860;SDS011;11095;48.066;8.540;2023-07-29T13:51:30;1.42;;;1.30;;
21860;SDS011;11095;48.066;8.540;2023-07-29T13:53:55;1.70;;;1.55;;
21860;SDS011;11095;48.066;8.540;2023-07-29T13:56:21;3.20;;;1.70;;
21860;SDS011;11095;48.066;8.540;2023-07-29T13:58:47;2.17;;;1.70;;
21860;SDS011;11095;48.066;8.540;2023-07-29T14:01:12;2.42;;;1.58;;
21860;SDS011;11095;48.066;8.540;2023-07-29T14:03:38;1.88;;;1.55;;
21860;SDS011;11095;48.066;8.540;2023-07-29T14:06:03;1.77;;;1.55;;
21860;SDS011;11095;48.066;8.540;2023-07-29T14:08:29;1.73;;;1.48;;
21860;SDS011;11095;48.066;8.540;2023-07-29T14:10:55;1.73;;;1.50;;
21860;SDS011;11095;48.066;8.540;2023-07-29T14:13:20;2.80;;;1.80;;
21860;SDS011;11095;48.066;8.540;2023-07-29T14:15:46;1.67;;;1.58;;
21860;SDS011;11095;48.066;8.540;2023-07-29T14:18:12;1.80;;;1.35;;
21860;SDS011;11095;48.066;8.540;2023-07-29T14:20:37;1.75;;;1.58;;
21860;SDS011;11095;48.066;8.540;2023-07-29T14:23:03;1.60;;;1.50;;
21860;SDS011;11095;48.066;8.540;2023-07-29T14:25:28;1.80;;;1.70;;
21860;SDS011;11095;48.066;8.540;2023-07-29T14:27:54;2.10;;;1.90;;
21860;SDS011;11095;48.066;8.540;2023-07-29T14:30:20;2.40;;;1.35;;
21860;SDS011;11095;48.066;8.540;2023-07-29T14:32:46;1.98;;;1.70;;
21860;SDS011;11095;48.066;8.540;2023-07-29T14:35:11;2.08;;;1.50;;
21860;SDS011;11095;48.066;8.540;2023-07-29T14:37:37;1.70;;;1.60;;
21860;SDS011;11095;48.066;8.540;2023-07-29T14:40:03;1.95;;;1.75;;
21860;SDS011;11095;48.066;8.540;2023-07-29T14:42:29;2.17;;;1.90;;
21860;SDS011;11095;48.066;8.540;2023-07-29T14:44:55;2.22;;;1.70;;
21860;SDS011;11095;48.066;8.540;2023-07-29T14:47:20;2.00;;;1.70;;
21860;SDS011;11095;48.066;8.540;2023-07-29T14:49:46;2.30;;;1.50;;
21860;SDS011;11095;48.066;8.540;2023-07-29T14:52:12;2.05;;;1.70;;
21860;SDS011;11095;48.066;8.540;2023-07-29T14:54:37;1.73;;;1.63;;
21860;SDS011;11095;48.066;8.540;2023-07-29T14:57:04;1.73;;;1.60;;
21860;SDS011;11095;48.066;8.540;2023-07-29T14:59:31;2.03;;;1.85;;
21860;SDS011;11095;48.066;8.540;2023-07-29T15:01:56;2.47;;;1.52;;
21860;SDS011;11095;48.066;8.540;2023-07-29T15:04:22;2.90;;;1.60;;
21860;SDS011;11095;48.066;8.540;2023-07-29T15:06:47;3.78;;;2.00;;
21860;SDS011;11095;48.066;8.540;2023-07-29T15:09:13;2.22;;;2.03;;
21860;SDS011;11095;48.066;8.540;2023-07-29T15:11:38;2.10;;;1.90;;
21860;SDS011;11095;48.066;8.540;2023-07-29T15:14:05;2.20;;;1.95;;
21860;SDS011;11095;48.066;8.540;2023-07-29T15:16:31;2.47;;;2.17;;
21860;SDS011;11095;48.066;8.540;2023-07-29T15:18:58;3.08;;;2.20;;
21860;SDS011;11095;48.066;8.540;2023-07-29T15:21:24;3.05;;;2.30;;